Time;durP1;ratioP1;P1;durP2;ratioP2;P2;SDS_P1;SDS_P2;PMS_P1;PMS_P2;Temp;Humidity;BMP_temperature;BMP_pressure;BME280_temperature;BME280_humidity;BME280_pressure;Samples;Min_cycle;Max_cycle;Signal;HPM_P1;HPM_P2
2021/10/19 00:00:31;;;;;;;17.38;10.63;;;11.10;99.90;;;;;;5082078;28;20124;-45
2021/10/19 00:02:57;;;;;;;13.38;10.50;;;11.10;99.90;;;;;;5090571;28;20034;-46
2021/10/19 00:05:22;;;;;;;14.15;8.88;;;11.10;99.90;;;;;;5090581;28;20050;-45
2021/10/19 00:07:47;;;;;;;17.50;10.98;;;11.10;99.90;;;;;;5089974;28;20239;-46
2021/10/19 00:10:14;;;;;;;15.70;10.73;;;11.10;99.90;;;;;;5090417;28;20024;-44
2021/10/19 00:12:40;;;;;;;18.08;11.07;;;11.00;99.90;;;;;;5090118;28;20493;-46
2021/10/19 00:15:11;;;;;;;16.58;11.30;;;11.00;99.90;;;;;;5090301;28;20516;-46
2021/10/19 00:17:38;;;;;;;19.33;11.63;;;11.00;99.90;;;;;;5089727;28;20454;-45
2021/10/19 00:20:06;;;;;;;19.42;11.55;;;11.00;99.90;;;;;;5090593;28;20028;-45
2021/10/19 00:22:31;;;;;;;20.30;11.80;;;11.10;99.90;;;;;;5090076;28;20434;-46
2021/10/19 00:24:57;;;;;;;18.02;11.20;;;11.10;99.90;;;;;;5088728;28;20233;-45
2021/10/19 00:27:22;;;;;;;15.05;11.35;;;11.00;99.90;;;;;;5086819;28;20056;-46
2021/10/19 00:29:48;;;;;;;15.10;9.45;;;11.00;99.90;;;;;;5077636;28;20025;-44
2021/10/19 00:32:13;;;;;;;14.50;10.43;;;11.00;99.90;;;;;;5089969;28;20039;-46
2021/10/19 00:34:39;;;;;;;15.93;10.48;;;11.00;99.90;;;;;;5089830;28;20062;-47
2021/10/19 00:37:04;;;;;;;14.40;10.15;;;11.00;99.90;;;;;;5089197;28;20107;-45
2021/10/19 00:39:30;;;;;;;14.35;10.73;;;11.00;99.90;;;;;;5089784;28;20043;-46
2021/10/19 00:41:55;;;;;;;16.02;10.15;;;11.00;99.90;;;;;;5089935;28;20032;-45
2021/10/19 00:44:21;;;;;;;15.52;10.65;;;11.00;99.90;;;;;;5089732;28;20469;-45
2021/10/19 00:46:47;;;;;;;17.75;11.30;;;11.00;99.90;;;;;;5088477;28;20020;-45
2021/10/19 00:49:12;;;;;;;16.25;10.75;;;11.00;99.90;;;;;;5089346;28;20031;-46
2021/10/19 00:51:38;;;;;;;18.77;11.25;;;11.00;99.90;;;;;;5089739;28;20505;-45
2021/10/19 00:54:05;;;;;;;13.93;9.63;;;10.90;99.90;;;;;;5089677;28;20024;-45
2021/10/19 00:56:30;;;;;;;19.65;11.90;;;10.90;99.90;;;;;;5089626;28;20024;-47
2021/10/19 00:58:56;;;;;;;19.52;12.02;;;10.90;99.90;;;;;;5081786;28;20112;-47
2021/10/19 01:01:22;;;;;;;15.73;10.40;;;10.90;99.90;;;;;;5082850;28;20450;-46
2021/10/19 01:03:47;;;;;;;17.80;10.38;;;10.90;99.90;;;;;;5088062;28;20020;-46
2021/10/19 01:06:13;;;;;;;18.88;12.15;;;10.90;99.90;;;;;;5089313;28;20024;-45
2021/10/19 01:08:40;;;;;;;23.05;14.75;;;10.90;99.90;;;;;;5088714;28;20103;-45
2021/10/19 01:11:07;;;;;;;17.05;12.05;;;10.80;99.90;;;;;;5089286;28;20085;-46
2021/10/19 01:13:34;;;;;;;20.90;13.93;;;10.80;99.90;;;;;;5089064;28;20024;-46
2021/10/19 01:16:05;;;;;;;19.63;12.30;;;10.80;99.90;;;;;;5089255;28;20038;-45
2021/10/19 01:18:30;;;;;;;;;;;10.90;99.90;;;;;;5088951;28;20405;-46
2021/10/19 01:20:56;;;;;;;20.95;12.27;;;10.80;99.90;;;;;;5089325;28;19961;-44
2021/10/19 01:23:21;;;;;;;22.20;13.77;;;10.80;99.90;;;;;;5089290;28;20530;-45
2021/10/19 01:25:48;;;;;;;23.80;13.68;;;10.80;99.90;;;;;;5089377;28;20355;-45
2021/10/19 01:28:14;;;;;;;19.60;13.27;;;10.80;99.90;;;;;;5084791;28;20058;-45
2021/10/19 01:30:41;;;;;;;22.80;13.80;;;10.80;99.90;;;;;;5079137;28;20485;-45
2021/10/19 01:33:07;;;;;;;20.20;13.32;;;10.80;99.90;;;;;;5089149;28;20035;-44
2021/10/19 01:35:34;;;;;;;21.95;12.80;;;10.80;99.90;;;;;;5088961;28;20107;-45
2021/10/19 01:38:01;;;;;;;22.65;14.68;;;10.80;99.90;;;;;;5088567;28;20038;-44
2021/10/19 01:40:26;;;;;;;20.60;13.38;;;10.80;99.90;;;;;;5088762;28;20031;-45
2021/10/19 01:42:52;;;;;;;21.20;13.90;;;10.80;99.90;;;;;;5088671;28;20484;-45
2021/10/19 01:45:18;;;;;;;23.55;13.55;;;10.90;99.90;;;;;;5087427;28;20026;-44
2021/10/19 01:47:45;;;;;;;22.00;13.98;;;10.90;99.90;;;;;;5088359;28;20024;-45
2021/10/19 01:50:12;;;;;;;31.08;16.40;;;10.90;99.90;;;;;;5088824;28;20024;-45
2021/10/19 01:52:38;;;;;;;23.98;14.73;;;10.90;99.90;;;;;;5088726;28;20115;-44
2021/10/19 01:55:05;;;;;;;29.67;16.20;;;10.90;99.90;;;;;;5088663;28;20118;-45
2021/10/19 01:57:31;;;;;;;24.45;15.77;;;10.90;99.90;;;;;;5087914;28;20093;-44
2021/10/19 01:59:57;;;;;;;25.08;15.48;;;10.90;99.90;;;;;;5066744;28;20020;-46
2021/10/19 02:02:22;;;;;;;24.35;15.15;;;10.80;99.90;;;;;;5068220;28;20494;-45
2021/10/19 02:04:48;;;;;;;24.95;15.43;;;10.90;99.90;;;;;;5067814;28;20025;-45
2021/10/19 02:07:13;;;;;;;24.27;15.13;;;10.90;99.90;;;;;;5067768;28;20446;-45
2021/10/19 02:09:39;;;;;;;21.73;15.23;;;10.90;99.90;;;;;;5068302;28;20108;-45
2021/10/19 02:12:05;;;;;;;23.55;14.88;;;10.90;99.90;;;;;;5068175;28;20106;-45
2021/10/19 02:14:30;;;;;;;26.63;15.13;;;10.90;99.90;;;;;;5067985;28;20559;-45
2021/10/19 02:16:56;;;;;;;23.88;15.50;;;10.90;99.90;;;;;;5067891;28;20060;-44
2021/10/19 02:19:25;;;;;;;21.25;14.65;;;10.90;99.90;;;;;;5067858;28;20082;-45
2021/10/19 02:21:52;;;;;;;24.70;15.73;;;10.90;99.90;;;;;;5068305;28;20033;-46
2021/10/19 02:24:18;;;;;;;26.20;16.05;;;10.90;99.90;;;;;;5068123;28;20043;-45
2021/10/19 02:26:44;;;;;;;26.35;14.93;;;10.90;99.90;;;;;;5068133;28;20025;-45
2021/10/19 02:29:09;;;;;;;23.27;14.77;;;10.90;99.90;;;;;;5063979;28;20043;-45
2021/10/19 02:31:35;;;;;;;24.83;15.45;;;11.00;99.90;;;;;;5079938;28;20456;-45
2021/10/19 02:34:00;;;;;;;26.45;16.65;;;11.00;99.90;;;;;;5088677;28;20032;-46
2021/10/19 02:36:26;;;;;;;26.27;15.95;;;11.00;99.90;;;;;;5088569;28;20028;-46
2021/10/19 02:38:52;;;;;;;23.58;15.77;;;11.00;99.90;;;;;;5087874;28;20027;-44
2021/10/19 02:41:18;;;;;;;24.38;15.52;;;11.00;99.90;;;;;;5088441;28;20088;-46
2021/10/19 02:43:43;;;;;;;23.80;15.32;;;11.00;99.90;;;;;;5087997;28;20536;-46
2021/10/19 02:46:09;;;;;;;25.10;15.50;;;11.00;99.90;;;;;;5088074;28;20047;-46
2021/10/19 02:48:34;;;;;;;23.38;14.60;;;11.00;99.90;;;;;;5086203;28;20293;-45
2021/10/19 02:51:00;;;;;;;20.92;12.90;;;11.10;99.90;;;;;;5088085;28;20032;-45
2021/10/19 02:53:25;;;;;;;22.42;13.93;;;11.10;99.90;;;;;;5088043;28;20035;-46
2021/10/19 02:55:50;;;;;;;21.60;14.35;;;11.10;99.90;;;;;;5088126;28;20035;-46
2021/10/19 02:58:16;;;;;;;23.38;14.85;;;11.10;99.90;;;;;;5054660;28;20509;-45
2021/10/19 03:00:41;;;;;;;24.10;14.52;;;11.10;99.90;;;;;;5058427;28;20025;-45
2021/10/19 03:03:07;;;;;;;26.02;16.42;;;11.10;99.90;;;;;;5064617;28;20175;-46
2021/10/19 03:05:32;;;;;;;24.33;14.45;;;11.20;99.90;;;;;;5067630;28;20385;-45
2021/10/19 03:07:58;;;;;;;28.25;16.77;;;11.20;99.90;;;;;;5060947;28;20029;-44
2021/10/19 03:10:24;;;;;;;21.10;14.50;;;11.30;99.90;;;;;;5049141;28;20030;-44
2021/10/19 03:12:49;;;;;;;25.60;16.50;;;11.30;99.90;;;;;;5048048;28;20501;-45
2021/10/19 03:15:19;;;;;;;26.05;16.73;;;11.30;99.90;;;;;;5047229;28;20124;-45
2021/10/19 03:17:45;;;;;;;24.63;15.40;;;11.30;99.90;;;;;;5048692;28;20478;-45
2021/10/19 03:20:10;;;;;;;26.00;16.85;;;11.30;99.90;;;;;;5051052;28;20067;-45
2021/10/19 03:22:36;;;;;;;25.55;16.90;;;11.30;99.90;;;;;;5051366;28;20032;-45
2021/10/19 03:25:02;;;;;;;29.65;17.92;;;11.40;99.90;;;;;;5057215;28;20027;-45
2021/10/19 03:27:27;;;;;;;24.63;15.35;;;11.40;99.90;;;;;;5055655;28;20055;-45
2021/10/19 03:29:53;;;;;;;29.70;17.05;;;11.40;99.90;;;;;;5069567;28;20024;-47
2021/10/19 03:32:18;;;;;;;22.65;15.13;;;11.40;99.90;;;;;;5085958;28;20367;-45
2021/10/19 03:34:44;;;;;;;27.70;16.45;;;11.40;99.90;;;;;;5091257;28;20021;-44
2021/10/19 03:37:10;;;;;;;31.05;18.17;;;11.50;99.90;;;;;;5090706;28;20122;-44
2021/10/19 03:39:36;;;;;;;27.08;17.40;;;11.40;99.90;;;;;;5090340;28;20059;-45
2021/10/19 03:42:02;;;;;;;33.20;17.70;;;11.50;99.90;;;;;;5091252;28;20485;-44
2021/10/19 03:44:28;;;;;;;25.80;16.25;;;11.50;99.90;;;;;;5090767;28;20035;-44
2021/10/19 03:46:54;;;;;;;36.42;19.38;;;11.50;99.90;;;;;;5090821;28;20028;-46
2021/10/19 03:49:19;;;;;;;29.65;16.83;;;11.50;99.90;;;;;;5090638;28;20020;-45
2021/10/19 03:51:45;;;;;;;26.88;17.33;;;11.50;99.90;;;;;;5058309;28;20407;-45
2021/10/19 03:54:10;;;;;;;24.25;15.77;;;11.50;99.90;;;;;;5050810;28;20302;-45
2021/10/19 03:56:36;;;;;;;27.67;16.98;;;11.60;99.90;;;;;;5050472;28;20032;-46
2021/10/19 03:59:01;;;;;;;24.98;16.55;;;11.60;99.90;;;;;;5057842;28;20030;-45
2021/10/19 04:01:27;;;;;;;28.77;17.40;;;11.50;99.90;;;;;;5082135;28;20028;-45
2021/10/19 04:03:52;;;;;;;26.27;16.70;;;11.60;99.90;;;;;;5090732;28;20513;-45
2021/10/19 04:06:18;;;;;;;31.67;18.08;;;11.60;99.90;;;;;;5091889;28;20101;-46
2021/10/19 04:08:43;;;;;;;26.40;17.15;;;11.60;99.90;;;;;;5091504;28;20042;-46
2021/10/19 04:11:09;;;;;;;27.40;16.27;;;11.60;99.90;;;;;;5091890;28;20035;-46
2021/10/19 04:13:35;;;;;;;30.05;17.10;;;11.60;99.90;;;;;;5090624;28;20081;-45
2021/10/19 04:16:00;;;;;;;26.23;16.40;;;11.60;99.90;;;;;;5091959;28;20103;-45
2021/10/19 04:18:26;;;;;;;29.27;17.67;;;11.70;99.90;;;;;;5091174;28;20048;-47
2021/10/19 04:20:51;;;;;;;31.23;18.40;;;11.70;99.90;;;;;;5092016;28;20034;-46
2021/10/19 04:23:17;;;;;;;26.52;16.40;;;11.70;99.90;;;;;;5091838;28;20074;-44
2021/10/19 04:25:42;;;;;;;27.90;17.92;;;11.70;99.90;;;;;;5091750;28;20444;-45
2021/10/19 04:28:08;;;;;;;23.80;15.63;;;11.70;99.90;;;;;;5082145;28;20017;-45
2021/10/19 04:30:33;;;;;;;26.08;17.10;;;11.70;99.90;;;;;;5076696;28;20028;-45
2021/10/19 04:32:59;;;;;;;30.58;15.85;;;11.80;99.90;;;;;;5091742;28;20069;-45
2021/10/19 04:35:24;;;;;;;26.85;16.25;;;11.70;99.90;;;;;;5091688;28;20124;-45
2021/10/19 04:37:50;;;;;;;27.25;17.08;;;11.70;99.90;;;;;;5089650;28;20032;-49
2021/10/19 04:40:15;;;;;;;29.38;17.42;;;11.80;99.90;;;;;;5091629;28;20055;-45
2021/10/19 04:42:41;;;;;;;24.50;15.75;;;11.80;99.90;;;;;;5090121;28;20379;-46
2021/10/19 04:45:08;;;;;;;28.50;15.75;;;11.80;99.90;;;;;;5091292;28;20130;-45
2021/10/19 04:47:34;;;;;;;24.73;16.33;;;11.80;99.90;;;;;;5090853;28;20052;-45
2021/10/19 04:50:00;;;;;;;30.80;17.73;;;11.80;99.90;;;;;;5091431;28;20047;-45
2021/10/19 04:52:26;;;;;;;31.52;18.10;;;11.80;99.90;;;;;;5091181;28;20129;-45
2021/10/19 04:54:53;;;;;;;26.77;17.33;;;11.90;99.90;;;;;;5090968;28;20478;-45
2021/10/19 04:57:19;;;;;;;33.33;19.08;;;11.90;99.90;;;;;;5090303;28;20057;-45
2021/10/19 04:59:45;;;;;;;26.02;16.40;;;11.90;99.90;;;;;;5073605;28;20157;-45
2021/10/19 05:02:10;;;;;;;27.25;17.08;;;11.80;99.90;;;;;;5078993;28;20028;-45
2021/10/19 05:04:36;;;;;;;36.28;18.45;;;11.80;99.90;;;;;;5070603;28;20036;-45
2021/10/19 05:07:01;;;;;;;28.77;17.15;;;11.90;99.90;;;;;;5070076;28;20031;-46
2021/10/19 05:09:27;;;;;;;34.28;19.05;;;11.90;99.90;;;;;;5070552;28;20055;-46
2021/10/19 05:11:52;;;;;;;28.75;18.67;;;11.90;99.90;;;;;;5056339;28;20409;-46
2021/10/19 05:14:18;;;;;;;25.63;17.00;;;11.90;99.90;;;;;;5050175;28;20024;-46
2021/10/19 05:16:43;;;;;;;27.02;17.08;;;11.90;99.90;;;;;;5050476;28;20024;-47
2021/10/19 05:19:09;;;;;;;27.02;18.25;;;11.90;99.90;;;;;;5053216;28;20119;-48
2021/10/19 05:21:34;;;;;;;26.65;17.13;;;11.90;99.90;;;;;;5058365;28;20039;-47
2021/10/19 05:24:00;;;;;;;31.90;17.55;;;11.90;99.90;;;;;;5068502;28;20028;-46
2021/10/19 05:26:25;;;;;;;26.63;17.42;;;11.90;99.90;;;;;;5066374;28;20131;-47
2021/10/19 05:28:51;;;;;;;27.30;16.73;;;11.90;99.90;;;;;;5056650;28;20501;-47
2021/10/19 05:31:16;;;;;;;27.15;17.52;;;11.90;99.90;;;;;;5078130;28;20035;-46
2021/10/19 05:33:42;;;;;;;25.13;16.10;;;11.90;99.90;;;;;;5072087;28;20119;-46
2021/10/19 05:36:07;;;;;;;28.23;17.50;;;12.00;99.90;;;;;;5060371;28;20037;-47
2021/10/19 05:38:33;;;;;;;26.17;16.42;;;12.00;99.90;;;;;;5052645;28;20455;-46
2021/10/19 05:41:00;;;;;;;25.15;16.05;;;11.90;99.90;;;;;;5059127;28;20017;-46
2021/10/19 05:43:25;;;;;;;28.45;17.23;;;11.90;99.90;;;;;;5060224;28;20030;-48
2021/10/19 05:45:51;;;;;;;28.02;17.65;;;12.00;99.90;;;;;;5067596;28;20409;-48
2021/10/19 05:48:16;;;;;;;25.15;15.90;;;12.00;99.90;;;;;;5060935;28;20029;-48
2021/10/19 05:50:42;;;;;;;27.98;16.15;;;12.00;99.90;;;;;;5067301;28;20024;-46
2021/10/19 05:53:07;;;;;;;24.25;15.77;;;12.00;99.90;;;;;;5050875;28;20053;-46
2021/10/19 05:55:33;;;;;;;28.00;17.48;;;12.00;99.90;;;;;;5062009;28;20047;-46
2021/10/19 05:57:59;;;;;;;28.30;17.48;;;12.10;99.90;;;;;;5062437;28;20657;-46
2021/10/19 06:00:24;;;;;;;26.13;15.98;;;12.10;99.90;;;;;;5076279;28;20035;-45
2021/10/19 06:02:50;;;;;;;25.50;16.65;;;12.10;99.90;;;;;;5068714;28;20158;-46
2021/10/19 06:05:15;;;;;;;23.13;16.17;;;12.20;99.90;;;;;;5066583;28;20029;-48
2021/10/19 06:07:41;;;;;;;25.77;15.85;;;12.20;99.90;;;;;;5077628;28;20029;-45
2021/10/19 06:10:07;;;;;;;23.95;14.80;;;12.20;99.90;;;;;;5070503;28;20025;-47
2021/10/19 06:12:32;;;;;;;25.83;15.25;;;12.20;99.90;;;;;;5067389;28;20645;-47
2021/10/19 06:14:58;;;;;;;24.58;16.20;;;12.20;99.90;;;;;;5072622;28;20029;-46
2021/10/19 06:17:23;;;;;;;27.15;16.67;;;12.20;99.90;;;;;;5048502;28;20035;-46
2021/10/19 06:19:49;;;;;;;26.50;15.77;;;12.20;99.90;;;;;;5061336;28;20028;-47
2021/10/19 06:22:15;;;;;;;25.70;15.98;;;12.30;99.90;;;;;;5062191;28;20508;-47
2021/10/19 06:24:41;;;;;;;27.08;17.00;;;12.20;99.90;;;;;;5063168;28;20020;-48
2021/10/19 06:27:06;;;;;;;25.90;15.43;;;12.30;99.90;;;;;;5054180;28;20013;-48
2021/10/19 06:29:32;;;;;;;21.50;14.77;;;12.20;99.90;;;;;;5049565;28;20025;-47
2021/10/19 06:31:57;;;;;;;26.02;16.27;;;12.20;99.90;;;;;;5086254;28;20076;-47
2021/10/19 06:34:23;;;;;;;24.58;15.60;;;12.20;99.90;;;;;;5071435;28;20067;-46
2021/10/19 06:36:48;;;;;;;26.63;16.23;;;12.30;99.90;;;;;;5065599;28;20028;-46
2021/10/19 06:39:14;;;;;;;28.52;17.23;;;12.20;99.90;;;;;;5057142;28;20052;-46
2021/10/19 06:41:40;;;;;;;31.65;16.77;;;12.20;99.90;;;;;;5071908;28;20033;-47
2021/10/19 06:44:05;;;;;;;27.20;16.70;;;12.20;99.90;;;;;;5065955;28;20041;-46
2021/10/19 06:46:31;;;;;;;26.30;16.42;;;12.30;99.90;;;;;;5048787;28;20544;-45
2021/10/19 06:48:56;;;;;;;26.23;16.73;;;12.30;99.90;;;;;;5054286;28;20021;-46
2021/10/19 06:51:22;;;;;;;28.95;16.88;;;12.40;99.90;;;;;;5069667;28;20087;-47
2021/10/19 06:53:48;;;;;;;24.60;15.43;;;12.40;99.90;;;;;;5087621;28;20588;-49
2021/10/19 06:56:13;;;;;;;24.25;15.27;;;12.50;99.90;;;;;;5079091;28;20060;-47
2021/10/19 06:58:39;;;;;;;28.15;16.42;;;12.50;99.90;;;;;;5061898;28;20029;-46
2021/10/19 07:01:05;;;;;;;25.90;15.52;;;12.70;99.90;;;;;;5066122;28;20036;-46
2021/10/19 07:03:34;;;;;;;25.25;15.93;;;12.80;99.90;;;;;;5055009;28;20057;-47
2021/10/19 07:06:03;;;;;;;26.30;16.92;;;12.90;99.90;;;;;;5052517;28;20117;-48
2021/10/19 07:08:29;;;;;;;25.10;16.40;;;12.90;99.90;;;;;;5051343;28;20100;-47
2021/10/19 07:10:55;;;;;;;25.30;16.25;;;13.00;99.90;;;;;;5052255;28;20112;-46
2021/10/19 07:13:23;;;;;;;23.25;15.45;;;13.00;99.90;;;;;;5065302;28;20453;-46
2021/10/19 07:15:54;;;;;;;24.90;15.38;;;13.10;99.90;;;;;;5081841;28;20048;-45
2021/10/19 07:18:21;;;;;;;25.00;15.95;;;13.20;99.90;;;;;;5081098;28;20016;-49
2021/10/19 07:20:48;;;;;;;25.83;16.33;;;13.20;99.90;;;;;;5091125;28;20028;-46
2021/10/19 07:23:13;;;;;;;23.92;15.07;;;13.10;99.90;;;;;;5092415;28;20167;-49
2021/10/19 07:25:39;;;;;;;25.83;14.48;;;13.20;99.90;;;;;;5092441;28;20130;-46
2021/10/19 07:28:04;;;;;;;23.92;16.00;;;13.10;99.90;;;;;;5077607;28;20023;-47
2021/10/19 07:30:30;;;;;;;25.20;15.70;;;13.00;99.90;;;;;;5070870;28;20059;-46
2021/10/19 07:32:56;;;;;;;22.48;15.20;;;13.00;99.90;;;;;;5068748;28;20401;-47
2021/10/19 07:35:22;;;;;;;26.73;15.95;;;13.00;99.90;;;;;;5060717;28;20033;-47
2021/10/19 07:37:49;;;;;;;25.30;15.60;;;13.10;99.90;;;;;;5059923;28;20025;-46
2021/10/19 07:40:15;;;;;;;26.70;16.42;;;13.10;99.90;;;;;;5061987;28;20644;-46
2021/10/19 07:42:42;;;;;;;24.52;16.02;;;13.20;99.90;;;;;;5060278;28;20049;-49
2021/10/19 07:45:09;;;;;;;25.88;15.52;;;13.20;99.90;;;;;;5058832;28;20029;-47
2021/10/19 07:47:39;;;;;;;23.23;15.07;;;13.20;99.90;;;;;;5050913;28;20068;-46
2021/10/19 07:50:05;;;;;;;23.67;15.20;;;13.20;99.90;;;;;;5051734;28;20025;-48
2021/10/19 07:52:31;;;;;;;23.17;14.85;;;13.30;99.90;;;;;;5061488;28;20041;-46
2021/10/19 07:54:56;;;;;;;23.05;14.60;;;13.30;99.90;;;;;;5071464;28;20035;-48
2021/10/19 07:57:22;;;;;;;22.80;15.05;;;13.40;99.90;;;;;;5081124;28;20520;-48
2021/10/19 07:59:48;;;;;;;25.20;15.23;;;13.50;99.90;;;;;;5070789;28;20861;-46
2021/10/19 08:02:13;;;;;;;23.40;14.73;;;13.70;99.90;;;;;;5072158;28;20028;-46
2021/10/19 08:04:39;;;;;;;18.10;12.43;;;13.70;99.90;;;;;;5078172;28;20024;-49
2021/10/19 08:07:04;;;;;;;23.02;15.35;;;13.80;99.90;;;;;;5088759;28;20503;-47
2021/10/19 08:09:30;;;;;;;24.00;15.10;;;13.90;99.90;;;;;;5074835;28;20115;-47
2021/10/19 08:11:55;;;;;;;26.92;14.35;;;14.10;99.90;;;;;;5052379;28;20090;-46
2021/10/19 08:14:21;;;;;;;20.42;13.90;;;14.20;99.90;;;;;;5049533;28;20033;-49
2021/10/19 08:16:46;;;;;;;26.13;14.43;;;14.20;99.90;;;;;;5064529;28;20032;-46
2021/10/19 08:19:12;;;;;;;20.00;13.50;;;14.20;99.90;;;;;;5059697;28;20028;-46
2021/10/19 08:21:38;;;;;;;22.33;14.07;;;14.20;99.90;;;;;;5060661;28;20032;-46
2021/10/19 08:24:03;;;;;;;19.50;13.15;;;14.20;99.90;;;;;;5057784;28;20029;-46
2021/10/19 08:26:30;;;;;;;19.55;12.52;;;14.10;99.90;;;;;;5072261;28;20036;-46
2021/10/19 08:29:01;;;;;;;20.42;13.43;;;14.20;99.90;;;;;;5061475;28;20028;-47
2021/10/19 08:31:27;;;;;;;19.20;12.38;;;14.20;99.90;;;;;;5073902;28;20493;-47
2021/10/19 08:33:53;;;;;;;24.33;14.90;;;14.20;99.90;;;;;;5051142;28;20025;-47
2021/10/19 08:36:19;;;;;;;21.85;14.90;;;14.20;99.90;;;;;;5057872;28;20128;-47
2021/10/19 08:38:46;;;;;;;21.65;13.65;;;14.20;99.90;;;;;;5064752;28;20550;-49
2021/10/19 08:41:12;;;;;;;21.70;12.85;;;14.30;99.90;;;;;;5075331;28;20024;-47
2021/10/19 08:43:38;;;;;;;18.95;13.60;;;14.50;99.90;;;;;;5063696;28;20540;-46
2021/10/19 08:46:10;;;;;;;19.75;12.90;;;14.60;99.90;;;;;;5069896;28;20024;-46
2021/10/19 08:48:36;;;;;;;22.08;13.25;;;14.70;99.90;;;;;;5064814;28;20025;-46
2021/10/19 08:51:02;;;;;;;19.27;12.32;;;14.70;99.90;;;;;;5067286;28;20017;-48
2021/10/19 08:53:27;;;;;;;21.45;13.23;;;14.70;99.90;;;;;;5060369;28;20031;-47
2021/10/19 08:55:53;;;;;;;21.13;13.00;;;14.70;99.90;;;;;;5071732;28;20561;-46
2021/10/19 08:58:19;;;;;;;25.80;15.80;;;14.60;99.90;;;;;;5075569;28;20036;-45
2021/10/19 09:00:45;;;;;;;19.80;13.73;;;14.60;99.90;;;;;;5072873;28;20051;-46
2021/10/19 09:03:10;;;;;;;18.83;13.10;;;14.60;99.90;;;;;;5072597;28;20087;-47
2021/10/19 09:05:36;;;;;;;22.83;13.73;;;14.60;99.90;;;;;;5050724;28;20027;-46
2021/10/19 09:08:09;;;;;;;21.35;12.75;;;14.60;99.90;;;;;;5066547;28;20020;-46
2021/10/19 09:10:37;;;;;;;22.58;13.55;;;14.70;99.90;;;;;;5064151;28;20513;-47
2021/10/19 09:13:05;;;;;;;21.25;12.93;;;14.70;99.90;;;;;;5061139;28;20029;-48
2021/10/19 09:15:33;;;;;;;28.42;13.88;;;14.70;99.90;;;;;;5074990;28;20029;-46
2021/10/19 09:18:10;;;;;;;22.25;12.43;;;14.70;99.90;;;;;;5072635;28;20111;-46
2021/10/19 09:20:41;;;;;;;22.02;13.57;;;14.70;99.90;;;;;;5064754;28;20032;-47
2021/10/19 09:23:08;;;;;;;17.17;11.98;;;14.60;99.90;;;;;;5066922;28;20163;-46
2021/10/19 09:25:36;;;;;;;17.58;11.32;;;14.70;99.90;;;;;;5065627;28;20028;-47
2021/10/19 09:28:03;;;;;;;17.00;10.38;;;14.70;99.90;;;;;;5051414;28;20017;-45
2021/10/19 09:30:42;;;;;;;17.48;11.50;;;14.80;99.90;;;;;;5068007;28;20506;-46
2021/10/19 09:33:15;;;;;;;18.73;11.40;;;14.90;99.90;;;;;;5048348;28;20040;-46
2021/10/19 09:35:42;;;;;;;15.05;10.93;;;14.90;99.90;;;;;;5056701;28;20425;-45
2021/10/19 09:38:11;;;;;;;16.65;10.32;;;14.90;99.90;;;;;;5076511;28;20016;-46
2021/10/19 09:40:43;;;;;;;19.23;10.20;;;15.00;99.90;;;;;;5056324;28;20031;-46
2021/10/19 09:43:17;;;;;;;13.65;9.70;;;15.10;99.90;;;;;;5068043;28;20048;-46
2021/10/19 09:45:45;;;;;;;14.57;9.90;;;15.20;99.90;;;;;;5074482;28;20031;-47
2021/10/19 09:48:14;;;;;;;15.88;9.98;;;15.30;99.90;;;;;;5072828;28;20040;-47
2021/10/19 09:50:41;;;;;;;12.63;9.23;;;15.40;99.90;;;;;;5056293;28;20027;-48
2021/10/19 09:53:09;;;;;;;13.10;9.73;;;15.50;99.90;;;;;;5047642;28;20170;-46
2021/10/19 09:55:36;;;;;;;18.25;9.95;;;15.70;99.90;;;;;;5067641;28;20051;-47
2021/10/19 09:58:02;;;;;;;15.50;9.82;;;15.70;99.90;;;;;;5075342;28;20034;-47
2021/10/19 10:00:32;;;;;;;13.00;8.60;;;15.80;99.90;;;;;;5065542;28;20046;-46
2021/10/19 10:02:59;;;;;;;14.55;8.48;;;16.00;99.90;;;;;;5064714;28;20032;-47
2021/10/19 10:05:24;;;;;;;14.13;9.43;;;16.10;99.90;;;;;;5051222;28;20048;-46
2021/10/19 10:07:51;;;;;;;12.95;9.07;;;16.20;99.90;;;;;;5073660;28;20087;-49
2021/10/19 10:10:17;;;;;;;10.57;7.60;;;16.20;99.90;;;;;;5059425;28;20244;-46
2021/10/19 10:12:49;;;;;;;12.98;8.38;;;16.30;99.90;;;;;;5054481;28;20033;-46
2021/10/19 10:15:23;;;;;;;13.88;8.93;;;16.40;99.90;;;;;;5057180;28;20394;-49
2021/10/19 10:17:56;;;;;;;11.23;8.23;;;16.50;99.90;;;;;;5066555;28;20025;-46
2021/10/19 10:20:34;;;;;;;14.55;8.43;;;16.40;99.90;;;;;;5059316;28;20414;-48
2021/10/19 10:23:25;;;;;;;11.13;8.75;;;16.50;99.90;;;;;;5047875;28;20033;-47
2021/10/19 10:25:56;;;;;;;12.50;8.65;;;16.50;99.90;;;;;;5061002;28;20029;-46
2021/10/19 10:28:29;;;;;;;10.23;7.97;;;16.50;99.90;;;;;;5069661;28;20025;-46
2021/10/19 10:30:57;;;;;;;10.02;8.43;;;16.70;99.90;;;;;;5081834;28;20012;-46
2021/10/19 10:33:32;;;;;;;11.88;7.70;;;16.80;99.90;;;;;;5080186;28;20021;-47
2021/10/19 10:36:02;;;;;;;8.77;6.45;;;16.80;99.90;;;;;;5064944;28;20478;-47
2021/10/19 10:38:28;;;;;;;10.75;7.80;;;17.00;99.90;;;;;;5065049;28;20475;-46
2021/10/19 10:40:57;;;;;;;10.93;7.28;;;17.30;99.90;;;;;;5055368;28;20040;-47
2021/10/19 10:43:28;;;;;;;10.30;6.57;;;17.60;99.90;;;;;;5071517;28;20048;-46
2021/10/19 10:46:03;;;;;;;11.40;6.82;;;17.40;99.90;;;;;;5053883;28;20437;-48
2021/10/19 10:48:29;;;;;;;9.07;6.80;;;17.10;99.90;;;;;;5056638;28;20025;-47
2021/10/19 10:50:55;;;;;;;11.95;7.53;;;17.00;99.90;;;;;;5074554;28;20016;-47
2021/10/19 10:53:20;;;;;;;9.50;7.78;;;16.90;99.90;;;;;;5065020;28;20341;-48
2021/10/19 10:55:49;;;;;;;13.93;7.82;;;16.80;99.90;;;;;;5071215;28;20025;-47
2021/10/19 10:58:32;;;;;;;9.60;7.00;;;16.90;99.90;;;;;;5076538;28;20270;-47
2021/10/19 11:01:00;;;;;;;14.15;8.30;;;17.10;99.90;;;;;;5060038;28;20424;-47
2021/10/19 11:03:26;;;;;;;12.82;7.70;;;17.10;99.90;;;;;;5092091;28;20032;-47
2021/10/19 11:05:57;;;;;;;12.75;7.07;;;17.20;99.90;;;;;;5069884;28;20013;-46
2021/10/19 11:08:31;;;;;;;8.25;6.60;;;17.50;99.90;;;;;;5055942;28;20020;-47
2021/10/19 11:11:05;;;;;;;9.25;6.40;;;17.60;99.90;;;;;;5058763;28;20066;-48
2021/10/19 11:13:32;;;;;;;11.63;6.82;;;17.50;99.90;;;;;;5062947;28;20272;-47
2021/10/19 11:15:58;;;;;;;12.38;6.78;;;17.50;99.90;;;;;;5060056;28;20029;-46
2021/10/19 11:18:25;;;;;;;16.75;7.50;;;17.20;99.90;;;;;;5077823;28;20029;-47
2021/10/19 11:20:57;;;;;;;10.80;7.07;;;17.00;99.90;;;;;;5068344;28;20020;-46
2021/10/19 11:23:23;;;;;;;12.10;7.25;;;16.90;99.90;;;;;;5051278;28;20079;-46
2021/10/19 11:25:49;;;;;;;11.02;7.03;;;16.80;99.90;;;;;;5061915;28;20278;-49
2021/10/19 11:28:15;;;;;;;11.18;6.68;;;16.80;99.90;;;;;;5076176;28;20021;-46
2021/10/19 11:30:40;;;;;;;10.10;7.22;;;16.70;99.90;;;;;;5067104;28;20025;-46
2021/10/19 11:33:07;;;;;;;11.68;6.88;;;16.80;99.90;;;;;;5073110;28;20501;-47
2021/10/19 11:35:34;;;;;;;9.43;6.40;;;16.70;99.90;;;;;;5066893;28;20043;-49
2021/10/19 11:38:00;;;;;;;12.30;6.75;;;16.50;99.90;;;;;;5076625;28;20058;-47
2021/10/19 11:40:26;;;;;;;13.98;7.55;;;16.50;99.90;;;;;;5057084;28;20041;-47
2021/10/19 11:42:55;;;;;;;9.32;6.80;;;16.50;99.90;;;;;;5069911;28;20040;-46
2021/10/19 11:45:26;;;;;;;11.25;7.25;;;16.50;99.90;;;;;;5065905;28;20115;-47
2021/10/19 11:47:54;;;;;;;13.23;7.10;;;16.50;99.90;;;;;;5067670;28;20021;-46
2021/10/19 11:50:32;;;;;;;10.57;7.28;;;16.50;99.90;;;;;;5054138;28;20020;-46
2021/10/19 11:53:00;;;;;;;10.77;7.40;;;16.50;99.90;;;;;;5058747;28;20272;-47
2021/10/19 11:55:30;;;;;;;10.80;6.93;;;16.50;99.90;;;;;;5056361;28;20032;-47
2021/10/19 11:57:56;;;;;;;9.93;6.38;;;16.50;99.90;;;;;;5067346;28;20032;-49
2021/10/19 12:00:23;;;;;;;14.18;6.70;;;16.40;99.90;;;;;;5065734;28;20031;-45
2021/10/19 12:02:59;;;;;;;11.20;6.82;;;16.40;99.90;;;;;;5077603;28;20415;-46
2021/10/19 12:05:27;;;;;;;12.02;5.93;;;16.40;99.90;;;;;;5050154;28;20064;-46
2021/10/19 12:07:55;;;;;;;11.30;6.88;;;16.40;99.90;;;;;;5049434;28;20071;-46
2021/10/19 12:10:29;;;;;;;8.77;6.60;;;16.40;99.90;;;;;;5076289;28;20032;-48
2021/10/19 12:13:04;;;;;;;11.98;7.07;;;16.20;99.90;;;;;;5066154;28;20413;-48
2021/10/19 12:15:33;;;;;;;14.23;6.78;;;16.10;99.90;;;;;;5056653;28;20428;-47
2021/10/19 12:18:01;;;;;;;11.05;6.18;;;16.10;99.90;;;;;;5064196;28;20479;-48
2021/10/19 12:20:29;;;;;;;9.18;6.30;;;16.10;99.90;;;;;;5049354;28;20035;-46
2021/10/19 12:23:03;;;;;;;13.77;6.22;;;16.20;99.90;;;;;;5050247;28;20579;-46
2021/10/19 12:25:41;;;;;;;8.43;5.88;;;16.20;99.90;;;;;;5067088;28;20498;-46
2021/10/19 12:28:07;;;;;;;9.25;6.30;;;16.10;99.90;;;;;;5065040;28;20065;-47